Time;durP1;ratioP1;P1;durP2;ratioP2;P2;SDS_P1;SDS_P2;PMS_P1;PMS_P2;Temp;Humidity;BMP_temperature;BMP_pressure;BME280_temperature;BME280_humidity;BME280_pressure;Samples;Min_cycle;Max_cycle;Signal;HPM_P1;HPM_P2
2022/01/25 00:09:49;;;;;;;27.05;10.50;;;;;;;3.73;100.00;103162.59;6250143;28;20128;-78
2022/01/25 00:24:17;;;;;;;28.15;10.60;;;;;;;3.70;100.00;103157.34;6250427;28;20050;-77
2022/01/25 00:26:22;;;;;;;25.48;10.38;;;;;;;3.65;100.00;103155.53;6249698;28;20504;-78
2022/01/25 00:29:33;;;;;;;24.30;9.82;;;;;;;3.67;100.00;103159.88;6249726;28;20056;-78
2022/01/25 00:32:34;;;;;;;29.63;12.30;;;;;;;3.65;100.00;103164.19;6249107;28;20053;-78
2022/01/25 00:35:36;;;;;;;28.10;9.32;;;;;;;3.64;100.00;103170.25;6249617;28;20496;-78
2022/01/25 00:38:37;;;;;;;28.58;10.13;;;;;;;3.61;100.00;103159.78;6250008;28;20061;-78
2022/01/25 00:41:40;;;;;;;26.13;9.88;;;;;;;3.61;100.00;103158.94;6249355;28;20056;-78
2022/01/25 00:44:46;;;;;;;30.40;11.77;;;;;;;3.57;100.00;103160.59;6250999;28;20049;-78
2022/01/25 00:47:50;;;;;;;28.42;11.07;;;;;;;3.56;100.00;103157.13;6266074;28;20072;-78
2022/01/25 00:50:51;;;;;;;27.75;10.70;;;;;;;3.56;100.00;103157.13;6267370;28;20045;-78
2022/01/25 00:53:56;;;;;;;27.75;10.32;;;;;;;3.60;100.00;103150.25;6261951;28;20052;-78
2022/01/25 00:56:59;;;;;;;28.85;10.02;;;;;;;3.56;100.00;103138.06;6257425;28;20077;-77
2022/01/25 01:00:00;;;;;;;28.73;9.70;;;;;;;3.50;100.00;103133.66;6241395;28;20052;-78
2022/01/25 01:03:02;;;;;;;31.35;11.35;;;;;;;3.52;100.00;103125.88;6261200;28;20046;-77
2022/01/25 01:06:05;;;;;;;29.95;10.60;;;;;;;3.52;100.00;103136.28;6271531;28;20052;-78
2022/01/25 01:09:07;;;;;;;49.85;14.82;;;;;;;3.50;100.00;103123.25;6249595;28;20049;-78
2022/01/25 01:12:24;;;;;;;36.05;12.25;;;;;;;3.49;100.00;103134.47;6248656;28;20045;-78
2022/01/25 01:15:32;;;;;;;28.60;9.35;;;;;;;3.48;100.00;103131.88;6241031;28;20076;-77
2022/01/25 01:29:05;;;;;;;31.50;11.10;;;;;;;3.42;100.00;103124.88;6248801;28;20080;-78
2022/01/25 01:32:23;;;;;;;30.38;12.38;;;;;;;3.35;100.00;103125.63;6248979;28;20054;-78
2022/01/25 01:35:41;;;;;;;26.27;10.50;;;;;;;3.37;100.00;103116.13;6248749;28;20049;-77
2022/01/25 01:39:14;;;;;;;28.65;11.25;;;;;;;3.37;100.00;103123.94;6249050;28;20057;-78
2022/01/25 01:45:54;;;;;;;28.58;11.20;;;;;;;3.31;100.00;103110.81;6318921;28;20347;-78
2022/01/25 01:48:58;;;;;;;28.00;10.27;;;;;;;3.30;100.00;103115.16;6319121;28;20041;-77
2022/01/25 01:51:59;;;;;;;25.42;10.45;;;;;;;3.29;100.00;103116.00;6304300;28;20533;-77
2022/01/25 01:55:01;;;;;;;27.27;11.45;;;;;;;3.34;100.00;103115.22;6269830;28;20045;-77
2022/01/25 01:58:03;;;;;;;28.50;10.80;;;;;;;3.38;100.00;103115.28;6269475;28;20408;-77
2022/01/25 02:01:08;;;;;;;25.15;10.02;;;;;;;3.34;100.00;103110.00;6268391;28;20049;-77
2022/01/25 02:04:12;;;;;;;22.67;9.35;;;;;;;3.36;100.00;103106.59;6268637;28;20045;-77
2022/01/25 02:07:13;;;;;;;27.05;10.27;;;;;;;3.40;100.00;103116.16;6268394;28;20045;-77
2022/01/25 02:10:15;;;;;;;24.55;9.18;;;;;;;3.38;100.00;103117.88;6268295;28;20053;-77
2022/01/25 02:13:16;;;;;;;24.20;10.45;;;;;;;3.38;100.00;103104.00;6268297;28;20049;-77
2022/01/25 02:16:34;;;;;;;21.70;9.77;;;;;;;3.40;100.00;103110.09;6268144;28;20136;-77
2022/01/25 02:22:57;;;;;;;20.80;8.88;;;;;;;3.40;100.00;103103.16;6267841;28;20504;-77
2022/01/25 02:26:00;;;;;;;17.30;7.25;;;;;;;3.41;100.00;103101.47;6267756;28;20524;-78
2022/01/25 02:29:02;;;;;;;22.15;7.53;;;;;;;3.42;100.00;103104.06;6287491;28;20053;-77
2022/01/25 02:32:04;;;;;;;19.08;8.32;;;;;;;3.43;100.00;103108.41;6292155;28;20049;-77
2022/01/25 02:35:06;;;;;;;23.65;8.32;;;;;;;3.43;100.00;103097.16;6290709;28;20051;-77
2022/01/25 02:38:09;;;;;;;19.65;7.03;;;;;;;3.45;100.00;103104.13;6267683;28;20053;-77
2022/01/25 02:41:11;;;;;;;20.23;7.95;;;;;;;3.43;100.00;103108.41;6267353;28;20519;-77
2022/01/25 02:44:17;;;;;;;16.42;6.60;;;;;;;3.44;100.00;103102.34;6267172;28;20049;-77
2022/01/25 02:50:38;;;;;;;21.73;7.93;;;;;;;3.39;100.00;103095.34;6266975;28;20061;-77
2022/01/25 02:53:41;;;;;;;27.33;7.45;;;;;;;3.38;100.00;103098.81;6267135;28;20068;-77
2022/01/25 02:56:44;;;;;;;25.60;7.68;;;;;;;3.38;100.00;103104.00;6252718;28;20056;-77
2022/01/25 02:59:46;;;;;;;27.70;8.68;;;;;;;3.39;100.00;103100.56;6265621;28;20501;-77
2022/01/25 03:02:47;;;;;;;18.88;6.93;;;;;;;3.42;100.00;103093.69;6250425;28;20394;-77
2022/01/25 03:05:48;;;;;;;20.60;7.50;;;;;;;3.47;100.00;103089.41;6250388;28;20509;-77
2022/01/25 03:08:52;;;;;;;18.27;7.20;;;;;;;3.45;100.00;103091.13;6261417;28;20052;-77
2022/01/25 03:11:55;;;;;;;16.40;6.15;;;;;;;3.45;100.00;103082.44;6275200;28;20052;-77
2022/01/25 03:15:12;;;;;;;24.48;8.52;;;;;;;3.46;100.00;103086.81;6270148;28;20053;-77
2022/01/25 03:18:25;;;;;;;19.65;7.47;;;;;;;3.48;100.00;103083.34;6250034;28;20056;-77
2022/01/25 03:21:37;;;;;;;17.75;8.25;;;;;;;3.47;100.00;103076.41;6250106;28;20049;-77
2022/01/25 03:24:40;;;;;;;16.08;7.20;;;;;;;3.47;100.00;103072.94;6249949;28;20049;-77
2022/01/25 03:27:41;;;;;;;20.17;7.57;;;;;;;3.42;100.00;103078.09;6250973;28;20527;-77
2022/01/25 03:30:42;;;;;;;26.92;9.40;;;;;;;3.39;100.00;103072.84;6249500;28;20056;-77
2022/01/25 03:33:44;;;;;;;24.90;8.80;;;;;;;3.37;100.00;103071.97;6253609;28;20048;-76
2022/01/25 03:36:45;;;;;;;23.23;7.88;;;;;;;3.32;100.00;103073.63;6262543;28;20060;-77
2022/01/25 03:39:48;;;;;;;25.25;8.85;;;;;;;3.35;100.00;103078.84;6249488;28;20049;-77
2022/01/25 03:42:49;;;;;;;19.52;8.05;;;;;;;3.31;100.00;103080.50;6249483;28;20534;-77
2022/01/25 03:46:00;;;;;;;24.65;8.68;;;;;;;3.29;100.00;103082.22;6249328;28;20535;-78
2022/01/25 03:52:27;;;;;;;27.63;10.38;;;;;;;3.25;100.00;103080.44;6249083;28;20428;-77
2022/01/25 03:55:30;;;;;;;23.80;8.38;;;;;;;3.27;100.00;103081.34;6249214;28;20052;-77
2022/01/25 03:58:31;;;;;;;31.15;9.68;;;;;;;3.31;100.00;103077.91;6249718;28;20053;-77
2022/01/25 04:01:33;;;;;;;22.75;9.02;;;;;;;3.34;100.00;103081.44;6248801;28;20524;-77
2022/01/25 04:04:35;;;;;;;34.25;11.15;;;;;;;3.36;100.00;103069.31;6248705;28;20045;-77
2022/01/25 04:07:48;;;;;;;20.42;9.32;;;;;;;3.37;100.00;103074.56;6247954;28;20056;-76
2022/01/25 04:10:51;;;;;;;24.80;9.30;;;;;;;3.40;100.00;103076.31;6248449;28;20094;-77
2022/01/25 04:13:53;;;;;;;26.67;9.88;;;;;;;3.39;100.00;103075.44;6248830;28;20049;-77
2022/01/25 04:16:59;;;;;;;28.15;10.05;;;;;;;3.40;100.00;103071.97;6248603;28;20419;-77
2022/01/25 04:20:13;;;;;;;29.98;10.18;;;;;;;3.41;100.00;103083.28;6249657;28;20080;-78
2022/01/25 04:26:35;;;;;;;24.35;8.57;;;;;;;3.36;100.00;103074.50;6258965;28;20496;-77
2022/01/25 04:29:37;;;;;;;28.17;9.25;;;;;;;3.37;100.00;103069.34;6271492;28;20049;-77
2022/01/25 04:32:46;;;;;;;25.35;10.18;;;;;;;3.38;100.00;103076.28;6268011;28;20052;-77
2022/01/25 04:35:58;;;;;;;25.73;9.80;;;;;;;3.31;100.00;103071.84;6250866;28;20048;-77
2022/01/25 04:49:04;;;;;;;24.85;9.77;;;;;;;3.29;100.00;103050.19;6252068;28;20068;-77
2022/01/25 04:52:09;;;;;;;24.92;10.90;;;;;;;3.29;100.00;103044.97;6272460;28;20448;-77
2022/01/25 04:55:18;;;;;;;26.38;10.10;;;;;;;3.30;100.00;103045.00;6272678;28;20052;-77
2022/01/25 04:58:27;;;;;;;24.67;9.45;;;;;;;3.32;100.00;103047.63;6272594;28;20569;-77
2022/01/25 05:01:28;;;;;;;25.52;10.35;;;;;;;3.25;100.00;103048.38;6272325;28;20068;-77
2022/01/25 05:04:35;;;;;;;25.88;9.48;;;;;;;3.20;100.00;103053.50;6272164;28;20045;-77
2022/01/25 05:07:42;;;;;;;26.60;10.40;;;;;;;3.22;100.00;103056.13;6272031;28;20135;-76
2022/01/25 05:10:51;;;;;;;32.08;11.80;;;;;;;3.20;100.00;103052.66;6271824;28;20048;-77
2022/01/25 05:14:09;;;;;;;32.07;11.80;;;;;;;3.16;100.00;103051.72;6271987;28;20052;-78
2022/01/25 05:17:17;;;;;;;29.80;11.13;;;;;;;3.18;100.00;103052.63;6248733;28;20053;-77
2022/01/25 05:23:28;;;;;;;;;;;;;;;3.18;100.00;103051.72;6260744;28;20076;-77
2022/01/25 05:26:29;;;;;;;26.17;10.48;;;;;;;3.21;100.00;103046.59;6257023;28;19921;-78
2022/01/25 05:29:32;;;;;;;37.05;11.82;;;;;;;3.10;100.00;103046.44;6268738;28;20056;-78
2022/01/25 05:32:34;;;;;;;28.02;10.75;;;;;;;3.07;100.00;103046.41;6271822;28;20504;-77
2022/01/25 05:35:35;;;;;;;35.30;10.15;;;;;;;2.99;100.00;103051.47;6271893;28;20072;-77
2022/01/25 05:38:37;;;;;;;38.35;12.38;;;;;;;2.98;100.00;103048.84;6270784;28;20056;-77
2022/01/25 05:41:40;;;;;;;29.30;11.15;;;;;;;2.94;100.00;103053.13;6268864;28;20392;-77
2022/01/25 05:44:55;;;;;;;33.22;12.63;;;;;;;2.96;100.00;103050.56;6270984;28;20137;-77
2022/01/25 05:47:56;;;;;;;37.20;12.23;;;;;;;2.98;100.00;103060.13;6250601;28;20060;-77
2022/01/25 05:50:58;;;;;;;33.67;11.77;;;;;;;3.03;100.00;103065.38;6247923;28;20389;-78
2022/01/25 05:53:59;;;;;;;26.05;10.23;;;;;;;3.08;100.00;103058.53;6246858;28;20049;-77
2022/01/25 05:57:01;;;;;;;32.58;11.23;;;;;;;3.12;100.00;103065.50;6246719;28;20075;-77
2022/01/25 06:00:06;;;;;;;30.48;11.48;;;;;;;3.09;100.00;103067.19;6246575;28;20064;-78
2022/01/25 06:03:08;;;;;;;30.25;9.98;;;;;;;3.09;100.00;103060.28;6246845;28;20056;-77
2022/01/25 06:06:09;;;;;;;27.95;11.60;;;;;;;3.11;100.00;103074.16;6246755;28;20052;-77
2022/01/25 06:09:10;;;;;;;31.75;12.27;;;;;;;3.02;100.00;103080.09;6246675;28;20053;-78
2022/01/25 06:12:12;;;;;;;31.70;11.38;;;;;;;3.06;100.00;103073.22;6246669;28;20049;-77
2022/01/25 06:15:15;;;;;;;29.73;10.63;;;;;;;3.04;100.00;103070.63;6246563;28;20421;-77
2022/01/25 06:18:16;;;;;;;40.10;11.93;;;;;;;3.05;100.00;103080.16;6267002;28;20048;-77
2022/01/25 06:21:17;;;;;;;33.88;13.05;;;;;;;2.99;100.00;103074.84;6270305;28;20412;-77
2022/01/25 06:24:19;;;;;;;37.50;12.48;;;;;;;3.08;100.00;103066.31;6254942;28;20416;-79
2022/01/25 06:27:20;;;;;;;31.70;10.85;;;;;;;3.05;100.00;103061.97;6247121;28;20049;-77
2022/01/25 06:30:23;;;;;;;45.28;13.20;;;;;;;2.98;100.00;103061.84;6266419;28;20060;-76
2022/01/25 06:33:24;;;;;;;29.15;10.88;;;;;;;2.98;100.00;103060.13;6264798;28;20049;-76
2022/01/25 06:36:26;;;;;;;38.08;11.65;;;;;;;2.98;100.00;103067.03;6270585;28;20060;-76
2022/01/25 06:39:28;;;;;;;32.05;10.75;;;;;;;2.92;100.00;103065.22;6269182;28;20053;-77
2022/01/25 06:42:31;;;;;;;33.22;12.23;;;;;;;2.88;100.00;103066.03;6275002;28;20045;-77
2022/01/25 06:45:39;;;;;;;38.13;13.07;;;;;;;2.88;100.00;103065.16;6273897;28;20520;-77
2022/01/25 06:48:40;;;;;;;33.80;10.40;;;;;;;2.95;100.00;103057.50;6274476;28;20079;-77
2022/01/25 06:51:42;;;;;;;37.53;10.63;;;;;;;3.00;100.00;103061.03;6272125;28;20045;-77
2022/01/25 06:54:43;;;;;;;29.55;11.82;;;;;;;3.05;100.00;103061.97;6250506;28;20059;-77
2022/01/25 06:57:45;;;;;;;30.35;11.40;;;;;;;3.06;100.00;103065.44;6267618;28;20677;-77
2022/01/25 07:00:48;;;;;;;34.22;12.07;;;;;;;3.08;100.00;103066.31;6266228;28;20079;-77
2022/01/25 07:03:49;;;;;;;29.33;10.70;;;;;;;3.07;100.00;103069.78;6262590;28;20060;-77
2022/01/25 07:06:51;;;;;;;36.35;11.68;;;;;;;3.08;100.00;103071.50;6261787;28;20037;-77
2022/01/25 07:09:52;;;;;;;31.30;11.13;;;;;;;3.10;100.00;103074.16;6274275;28;20040;-76
2022/01/25 07:12:53;;;;;;;28.50;11.60;;;;;;;3.07;100.00;103069.78;6274340;28;20405;-77
2022/01/25 07:15:56;;;;;;;30.38;10.32;;;;;;;3.08;100.00;103070.66;6274444;28;20049;-77
2022/01/25 07:18:57;;;;;;;36.15;11.27;;;;;;;3.04;100.00;103069.72;6265565;28;20049;-76
2022/01/25 07:21:59;;;;;;;30.33;11.75;;;;;;;2.96;100.00;103072.22;6261008;28;20049;-76
2022/01/25 07:25:00;;;;;;;40.78;13.32;;;;;;;2.96;100.00;103068.75;6250148;28;20053;-77
2022/01/25 07:28:02;;;;;;;28.23;10.98;;;;;;;2.96;100.00;103060.97;6255300;28;20045;-77
2022/01/25 07:31:05;;;;;;;30.83;10.77;;;;;;;3.01;100.00;103064.50;6268578;28;20054;-77
2022/01/25 07:34:06;;;;;;;34.60;12.60;;;;;;;3.05;100.00;103074.09;6249475;28;20076;-77
2022/01/25 07:37:07;;;;;;;36.17;12.73;;;;;;;3.00;100.00;103061.03;6249712;28;20049;-77
2022/01/25 07:40:10;;;;;;;34.63;12.10;;;;;;;2.96;100.00;103066.16;6257477;28;20045;-77
2022/01/25 07:43:12;;;;;;;32.65;11.60;;;;;;;3.00;100.00;103067.94;6266490;28;20489;-77
2022/01/25 07:46:16;;;;;;;31.15;10.52;;;;;;;3.05;100.00;103068.88;6249558;28;20053;-77
2022/01/25 07:49:18;;;;;;;32.45;10.77;;;;;;;3.04;100.00;103069.72;6249385;28;20501;-77
2022/01/25 07:52:19;;;;;;;36.25;10.77;;;;;;;3.04;100.00;103074.91;6259221;28;20110;-77
2022/01/25 07:55:21;;;;;;;38.35;12.40;;;;;;;3.08;100.00;103065.44;6261127;28;20045;-77
2022/01/25 07:58:22;;;;;;;32.38;12.38;;;;;;;3.07;100.00;103066.31;6268511;28;20049;-76
2022/01/25 08:01:26;;;;;;;38.08;12.75;;;;;;;3.03;100.00;103073.16;6271767;28;20053;-77
2022/01/25 08:04:28;;;;;;;29.08;11.05;;;;;;;3.02;100.00;103074.91;6256352;28;20420;-78
2022/01/25 08:07:29;;;;;;;34.75;11.25;;;;;;;3.01;100.00;103080.09;6249230;28;20056;-80
2022/01/25 08:10:31;;;;;;;29.08;10.95;;;;;;;3.07;100.00;103066.31;6270582;28;20056;-78
2022/01/25 08:13:32;;;;;;;29.83;11.80;;;;;;;3.10;100.00;103080.22;6273808;28;20045;-78
2022/01/25 08:16:35;;;;;;;32.10;12.05;;;;;;;3.11;100.00;103076.75;6274648;28;20056;-79
2022/01/25 08:19:36;;;;;;;29.33;11.05;;;;;;;3.13;100.00;103080.25;6272365;28;20056;-79
2022/01/25 08:22:40;;;;;;;37.70;12.15;;;;;;;3.16;100.00;103077.69;6255277;28;20053;-77
2022/01/25 08:25:41;;;;;;;29.25;10.55;;;;;;;3.16;100.00;103082.91;6272535;28;20064;-78
2022/01/25 08:28:42;;;;;;;30.98;12.70;;;;;;;3.14;100.00;103083.75;6274075;28;20055;-78
2022/01/25 08:31:45;;;;;;;29.75;10.30;;;;;;;3.16;100.00;103088.09;6273972;28;20455;-78
2022/01/25 08:34:48;;;;;;;35.63;12.95;;;;;;;3.15;100.00;103081.16;6273565;28;20049;-79
2022/01/25 08:37:49;;;;;;;33.15;13.23;;;;;;;3.11;100.00;103088.88;6274226;28;20045;-78
2022/01/25 08:40:50;;;;;;;29.73;11.10;;;;;;;3.10;100.00;103088.00;6253147;28;20520;-78
2022/01/25 08:43:52;;;;;;;35.38;12.27;;;;;;;3.10;100.00;103089.75;6270948;28;20063;-77
2022/01/25 08:46:55;;;;;;;32.75;12.23;;;;;;;3.14;100.00;103089.81;6271132;28;20056;-77
2022/01/25 08:49:56;;;;;;;35.92;11.10;;;;;;;3.17;100.00;103083.78;6269902;28;20064;-78
2022/01/25 08:52:57;;;;;;;32.42;11.02;;;;;;;3.19;100.00;103082.94;6272076;28;20053;-78
2022/01/25 08:55:59;;;;;;;32.45;11.05;;;;;;;3.20;100.00;103086.44;6270518;28;20504;-77
2022/01/25 08:59:01;;;;;;;28.83;11.20;;;;;;;3.20;100.00;103091.63;6267737;28;20072;-77
2022/01/25 09:02:05;;;;;;;40.67;12.05;;;;;;;3.19;100.00;103092.47;6265538;28;20068;-77
2022/01/25 09:05:07;;;;;;;28.23;11.55;;;;;;;3.16;100.00;103095.03;6271586;28;20408;-75
2022/01/25 09:08:09;;;;;;;37.13;12.93;;;;;;;3.13;100.00;103103.63;6271848;28;20045;-77
2022/01/25 09:11:10;;;;;;;32.42;10.00;;;;;;;3.13;100.00;103107.94;6264809;28;20037;-77
2022/01/25 09:14:12;;;;;;;28.73;11.35;;;;;;;3.16;100.00;103110.59;6271318;28;20049;-77
2022/01/25 09:17:15;;;;;;;28.70;10.02;;;;;;;3.11;100.00;103107.94;6271597;28;20056;-76
2022/01/25 09:20:17;;;;;;;32.50;12.13;;;;;;;3.16;100.00;103098.50;6269021;28;20408;-77
2022/01/25 09:23:20;;;;;;;35.35;11.70;;;;;;;3.13;100.00;103103.63;6272358;28;20059;-78
2022/01/25 09:26:22;;;;;;;34.65;12.15;;;;;;;3.14;100.00;103096.72;6269195;28;20427;-75
2022/01/25 09:29:23;;;;;;;36.60;10.38;;;;;;;3.18;100.00;103104.59;6270190;28;20055;-76
2022/01/25 09:32:26;;;;;;;28.60;10.40;;;;;;;3.21;100.00;103106.34;6266142;28;20049;-77
2022/01/25 09:35:27;;;;;;;41.78;10.88;;;;;;;3.23;100.00;103115.06;6265823;28;20448;-78
2022/01/25 09:38:29;;;;;;;39.38;12.70;;;;;;;3.19;100.00;103113.25;6268263;28;20393;-79
2022/01/25 09:41:30;;;;;;;30.30;10.27;;;;;;;3.20;100.00;103102.88;6267716;28;20052;-78
2022/01/25 09:44:32;;;;;;;47.55;13.90;;;;;;;3.24;100.00;103109.00;6257717;28;20052;-78
2022/01/25 09:47:34;;;;;;;34.45;12.13;;;;;;;3.23;100.00;103117.66;6270712;28;20045;-77
2022/01/25 09:50:38;;;;;;;36.20;11.93;;;;;;;3.23;100.00;103117.66;6268135;28;20045;-79
2022/01/25 09:53:42;;;;;;;35.63;12.48;;;;;;;3.25;100.00;103119.41;6267195;28;20420;-77
2022/01/25 09:56:44;;;;;;;28.83;10.93;;;;;;;3.21;100.00;103124.53;6270810;28;20052;-78
2022/01/25 09:59:46;;;;;;;36.60;12.40;;;;;;;3.25;100.00;103122.00;6271747;28;20056;-78
2022/01/25 10:02:56;;;;;;;40.05;12.52;;;;;;;3.24;100.00;103124.59;6271784;28;20052;-78
2022/01/25 10:06:00;;;;;;;34.65;11.07;;;;;;;3.25;100.00;103116.81;6272194;28;20045;-77
2022/01/25 10:09:02;;;;;;;23.83;9.43;;;;;;;3.28;100.00;103122.06;6276560;28;20557;-78
2022/01/25 10:12:17;;;;;;;35.25;11.68;;;;;;;3.28;100.00;103123.78;6271854;28;20500;-77
2022/01/25 10:15:18;;;;;;;40.97;13.00;;;;;;;3.33;100.00;103127.34;6276102;28;20404;-78
2022/01/25 10:18:21;;;;;;;33.55;11.55;;;;;;;3.37;100.00;103113.53;6274170;28;20412;-77
2022/01/25 10:21:24;;;;;;;36.15;11.68;;;;;;;3.40;100.00;103113.56;6274591;28;20053;-76
2022/01/25 10:24:31;;;;;;;32.03;12.25;;;;;;;3.39;100.00;103110.94;6269792;28;20052;-78
2022/01/25 10:28:03;;;;;;;23.20;9.50;;;;;;;3.41;100.00;103112.72;6275880;28;20534;-76
2022/01/25 10:31:06;;;;;;;34.28;9.77;;;;;;;3.42;100.00;103116.19;6274947;28;20055;-77
2022/01/25 10:34:11;;;;;;;41.03;12.30;;;;;;;3.42;100.00;103111.88;6271551;28;20048;-77
2022/01/25 10:37:16;;;;;;;25.73;9.13;;;;;;;3.42;100.00;103117.06;6268380;28;20053;-77
2022/01/25 10:40:35;;;;;;;24.42;10.23;;;;;;;3.43;100.00;103124.00;6268834;28;20575;-77
2022/01/25 10:43:39;;;;;;;31.65;10.75;;;;;;;3.41;100.00;103117.06;6265750;28;20394;-77
2022/01/25 10:46:40;;;;;;;32.00;10.38;;;;;;;3.42;100.00;103121.41;6271548;28;20053;-77
2022/01/25 10:49:51;;;;;;;28.63;10.07;;;;;;;3.46;100.00;103123.19;6274225;28;20053;-78
2022/01/25 10:53:08;;;;;;;29.52;10.77;;;;;;;3.47;100.00;103112.81;6275508;28;20049;-77
2022/01/25 10:56:10;;;;;;;40.25;11.70;;;;;;;3.46;100.00;103110.19;6273543;28;20124;-78
2022/01/25 10:59:14;;;;;;;32.45;13.68;;;;;;;3.48;100.00;103116.28;6273973;28;20049;-77
2022/01/25 11:02:21;;;;;;;34.92;10.93;;;;;;;3.48;100.00;103117.16;6272161;28;20041;-76
2022/01/25 11:05:25;;;;;;;25.90;10.30;;;;;;;3.42;100.00;103113.59;6272169;28;20128;-77
2022/01/25 11:08:28;;;;;;;29.27;10.35;;;;;;;3.43;100.00;103115.34;6273071;28;20045;-77
2022/01/25 11:11:34;;;;;;;29.60;10.15;;;;;;;3.46;100.00;103118.00;6273790;28;20466;-77
2022/01/25 11:14:53;;;;;;;23.17;9.43;;;;;;;3.50;100.00;103122.41;6270988;28;20048;-78
2022/01/25 11:17:54;;;;;;;30.05;9.93;;;;;;;3.43;100.00;103115.34;6261496;28;20079;-77
2022/01/25 11:20:59;;;;;;;31.88;11.52;;;;;;;3.42;100.00;103109.28;6274200;28;20523;-77
2022/01/25 11:24:01;;;;;;;25.15;9.43;;;;;;;3.42;100.00;103111.00;6268626;28;20060;-77
2022/01/25 11:27:04;;;;;;;30.02;11.75;;;;;;;3.42;100.00;103116.19;6250016;28;20046;-77
2022/01/25 11:30:09;;;;;;;26.35;10.82;;;;;;;3.48;100.00;103108.47;6249759;28;20413;-78
2022/01/25 11:33:12;;;;;;;30.10;10.40;;;;;;;3.47;100.00;103096.34;6250007;28;20052;-77
2022/01/25 11:36:16;;;;;;;28.98;11.27;;;;;;;3.47;100.00;103102.41;6250035;28;20045;-77
2022/01/25 11:39:20;;;;;;;34.13;11.80;;;;;;;3.50;100.00;103101.59;6249818;28;20049;-79
2022/01/25 11:42:26;;;;;;;31.38;11.40;;;;;;;3.48;100.00;103101.56;6257425;28;20526;-78
2022/01/25 11:45:30;;;;;;;33.10;11.60;;;;;;;3.46;100.00;103099.81;6274179;28;20045;-77
2022/01/25 11:48:38;;;;;;;25.77;10.55;;;;;;;3.46;100.00;103094.59;6271284;28;20053;-78
2022/01/25 11:51:42;;;;;;;33.08;10.30;;;;;;;3.49;100.00;103095.50;6273772;28;20141;-77
2022/01/25 11:54:45;;;;;;;27.42;9.82;;;;;;;3.48;100.00;103093.75;6273766;28;20056;-77
2022/01/25 11:57:48;;;;;;;30.13;11.05;;;;;;;3.50;100.00;103093.81;6271202;28;20068;-77
2022/01/25 12:00:52;;;;;;;30.77;9.45;;;;;;;3.53;100.00;103084.28;6272353;28;20404;-78
2022/01/25 12:03:57;;;;;;;31.20;9.77;;;;;;;3.58;100.00;103080.88;6273429;28;20052;-77
2022/01/25 12:07:03;;;;;;;27.77;9.70;;;;;;;3.63;100.00;103077.47;6273401;28;20455;-77
2022/01/25 12:10:26;;;;;;;26.52;9.65;;;;;;;3.62;100.00;103072.28;6258900;28;20584;-77
2022/01/25 12:13:30;;;;;;;31.75;11.40;;;;;;;3.64;100.00;103065.38;6248363;28;20057;-76
2022/01/25 12:16:43;;;;;;;32.85;11.77;;;;;;;3.60;100.00;103061.00;6252320;28;20041;-76
2022/01/25 12:19:48;;;;;;;40.25;10.93;;;;;;;3.60;100.00;103061.00;6262419;28;20049;-78
2022/01/25 12:23:05;;;;;;;34.35;11.25;;;;;;;3.60;100.00;103061.00;6273566;28;20052;-77
2022/01/25 12:26:08;;;;;;;29.25;10.73;;;;;;;3.58;100.00;103052.28;6265086;28;20045;-78
2022/01/25 12:29:32;;;;;;;24.55;9.40;;;;;;;3.62;100.00;103046.28;6253976;28;20134;-77
2022/01/25 12:32:36;;;;;;;28.50;10.48;;;;;;;3.59;100.00;103039.31;6266345;28;20143;-77
2022/01/25 12:35:43;;;;;;;31.02;8.73;;;;;;;3.67;100.00;103032.47;6272820;28;20047;-78
2022/01/25 12:38:49;;;;;;;27.00;10.05;;;;;;;3.70;100.00;103029.03;6269229;28;20045;-77
2022/01/25 12:41:51;;;;;;;25.48;10.07;;;;;;;3.75;100.00;103028.25;6267126;28;20045;-77
2022/01/25 12:44:54;;;;;;;31.77;10.35;;;;;;;3.85;100.00;103011.00;6260490;28;20049;-76
2022/01/25 12:47:58;;;;;;;30.38;9.63;;;;;;;3.84;100.00;103004.06;6267706;28;20052;-78
2022/01/25 12:51:03;;;;;;;38.00;10.07;;;;;;;3.84;100.00;103011.00;6272239;28;20052;-77
2022/01/25 12:54:08;;;;;;;30.33;8.43;;;;;;;3.89;100.00;103009.31;6249965;28;20057;-76
2022/01/25 12:57:10;;;;;;;27.80;10.80;;;;;;;3.85;100.00;103005.81;6265120;28;20512;-78
2022/01/25 13:00:13;;;;;;;29.42;10.10;;;;;;;3.89;100.00;103004.97;6247663;28;20512;-79
2022/01/25 13:03:26;;;;;;;34.33;10.68;;;;;;;3.83;100.00;102991.94;6247847;28;20042;-78
2022/01/25 13:06:29;;;;;;;26.58;8.23;;;;;;;3.90;100.00;102992.84;6248561;28;20128;-78
2022/01/25 13:09:38;;;;;;;25.30;9.93;;;;;;;3.90;100.00;102988.50;6271882;28;20060;-77
2022/01/25 13:12:55;;;;;;;;;;;;;;;3.87;100.00;102985.03;6269676;28;20049;-77
2022/01/25 13:15:58;;;;;;;31.30;8.52;;;;;;;3.80;100.00;102979.75;6247417;28;19928;-77
2022/01/25 13:19:00;;;;;;;23.20;8.50;;;;;;;3.79;100.00;102984.94;6252573;28;20050;-77
2022/01/25 13:22:07;;;;;;;26.23;11.05;;;;;;;3.88;100.00;102982.44;6247139;28;20053;-77
2022/01/25 13:25:20;;;;;;;15.45;7.07;;;;;;;3.78;100.00;102986.69;6249555;28;20057;-77
2022/01/25 13:28:34;;;;;;;30.38;9.57;;;;;;;3.74;100.00;102989.22;6263702;28;20044;-77
2022/01/25 13:31:35;;;;;;;27.38;10.57;;;;;;;3.78;100.00;102985.81;6271645;28;20408;-77
2022/01/25 13:34:37;;;;;;;27.83;8.70;;;;;;;3.79;100.00;102984.94;6272006;28;20064;-78
2022/01/25 13:37:38;;;;;;;23.33;8.70;;;;;;;3.91;100.00;102987.69;6271580;28;20492;-77
2022/01/25 13:40:50;;;;;;;30.02;8.55;;;;;;;3.81;100.00;102988.41;6271240;28;20059;-77
2022/01/25 13:47:12;;;;;;;25.63;9.45;;;;;;;3.80;100.00;102981.47;6270976;28;20045;-77
2022/01/25 13:50:14;;;;;;;25.42;8.68;;;;;;;3.88;100.00;102982.44;6271772;28;20052;-77
2022/01/25 13:53:18;;;;;;;19.65;8.27;;;;;;;3.81;100.00;102984.13;6271421;28;20414;-78
2022/01/25 13:56:23;;;;;;;21.77;8.50;;;;;;;3.82;100.00;102985.00;6271640;28;20041;-78
2022/01/25 13:59:25;;;;;;;25.15;7.88;;;;;;;3.83;100.00;102984.13;6271244;28;20408;-77
2022/01/25 14:02:27;;;;;;;25.92;7.45;;;;;;;3.87;100.00;102991.09;6270954;28;20136;-76
2022/01/25 14:05:36;;;;;;;29.55;8.68;;;;;;;3.80;100.00;102990.16;6271387;28;20049;-77
2022/01/25 14:08:40;;;;;;;20.27;8.35;;;;;;;3.80;100.00;102990.16;6271016;28;20052;-76
2022/01/25 14:21:59;;;;;;;26.63;9.50;;;;;;;3.68;100.00;102997.84;6270781;28;20053;-77
2022/01/25 14:25:01;;;;;;;29.25;9.38;;;;;;;3.58;100.00;102995.09;6271106;28;20053;-77
2022/01/25 14:28:06;;;;;;;21.67;9.50;;;;;;;3.53;100.00;102990.72;6271364;28;20511;-77
2022/01/25 14:31:15;;;;;;;24.67;10.95;;;;;;;3.55;100.00;102994.22;6271103;28;20060;-77
2022/01/25 14:34:19;;;;;;;32.25;8.93;;;;;;;3.64;100.00;102992.59;6271092;28;20044;-78
2022/01/25 14:37:21;;;;;;;31.15;10.00;;;;;;;3.63;100.00;103001.22;6270193;28;20045;-78
2022/01/25 14:40:22;;;;;;;23.95;9.50;;;;;;;3.59;100.00;102996.81;6271065;28;20052;-78
2022/01/25 14:43:26;;;;;;;34.85;10.35;;;;;;;3.59;100.00;102996.81;6270471;28;20425;-77
2022/01/25 14:46:31;;;;;;;22.50;7.93;;;;;;;3.61;100.00;102995.13;6270764;28;20056;-76
2022/01/25 14:49:35;;;;;;;27.17;8.73;;;;;;;3.62;100.00;102991.69;6270822;28;20055;-76
2022/01/25 14:52:36;;;;;;;31.88;10.73;;;;;;;3.63;100.00;102986.47;6273223;28;20045;-77
2022/01/25 14:55:40;;;;;;;25.45;8.68;;;;;;;3.64;100.00;102988.25;6275350;28;20049;-76
2022/01/25 15:02:26;;;;;;;26.13;8.88;;;;;;;3.65;100.00;102983.91;6218568;28;20806;-77
2022/01/25 15:05:27;;;;;;;24.70;8.15;;;;;;;3.65;100.00;102984.78;6222646;28;20508;-77
2022/01/25 15:08:29;;;;;;;20.95;8.57;;;;;;;3.62;100.00;102983.88;6271481;28;20514;-77
2022/01/25 15:11:32;;;;;;;23.65;8.13;;;;;;;3.64;100.00;102990.84;6271094;28;20432;-76
2022/01/25 15:14:49;;;;;;;24.45;8.20;;;;;;;3.68;100.00;102986.53;6272820;28;20045;-77
2022/01/25 15:17:50;;;;;;;35.63;10.65;;;;;;;3.63;100.00;102993.41;6251803;28;20041;-77